Tiempo atmosférico en la estación meteorológica de Puerto Alto del León, Madrid (1532 m.)



Fecha
DESCASC
Temp. máxima en grados centígrados (hora)
DESCASC
Temp. mínima en grados centígrados (hora)
DESCASC
Temp. media en grados centígrados
DESCASC
Racha de viento máxima en m/sg (hora)
DESCASC
Velocidad máxima media en intervalos de 10 minutos(hora)
DESCASC
Precipitaciones diarias en mm
DESCASC
Precipitaciones de 00:00 a 06:00 en mm
DESCASC
Precipitaciones de 06:00 a 12:00 en mm
DESCASC
Precipitaciones de 12:00 a 18:00 en mm
DESCASC
Precipitaciones de 18:00 a 24:00 en mm
DESCASC
17-10-2019 14.1 (14:10) 5.8 (04:20) 10 9.72 (13:50) 5.28 (13:20) 4.2 0 4 0 0.2
16-10-2019 11.9 (16:00) 2.9 (07:10) 7.4 7.5 (14:10) 5 (08:50) 0 0 0 0 0
15-10-2019 9.1 (16:20) 0.3 (04:50) 4.7 19.44 (00:30) 13.06 (00:10) 0 0 0 0 0
14-10-2019 12.8 (14:50) 2.1 (21:40) 7.5 20 (20:40) 12.22 (22:40) 8.1 0 0.4 4.2 3.5
13-10-2019 15.5 (16:00) 9.5 (00:00) 12.5 11.67 (05:30) 6.67 (06:30) 0 0 0 0 0
12-10-2019 19.2 (17:00) 10.4 (00:00) 14.8 10.83 (16:50) 6.11 (16:00) 5.5 0 0 0 5.5
11-10-2019 19.4 (17:00) 11.2 (00:00) 15.3 8.89 (16:30) 5.28 (13:40) 0 0 0 0 0
10-10-2019 18.6 (16:50) 9.1 (00:00) 13.9 13.89 (09:00) 5.56 (10:40) 0 0 0 0 0
09-10-2019 20 (16:10) 9.8 (00:00) 14.9 13.06 (07:30) 8.89 (10:10) 0 0 0 0 0
08-10-2019 22.8 (17:20) 13.7 (00:00) 18.2 8.61 (23:59) 5.83 (23:20) 0 0 0 0 0
07-10-2019 21.8 (17:20) 8 (00:00) 14.9 13.61 (03:50) 10 (04:00) 0 0 0 0 0
06-10-2019 19.8 (16:50) 7.3 (00:00) 13.5 12.5 (13:10) 8.61 (00:30) 0 0 0 0 0
05-10-2019 22 (16:10) 10.4 (00:00) 16.2 10.28 (23:30) 7.5 (23:00) 0 0 0 0 0
04-10-2019 19.8 (14:40) 9.3 (00:00) 14.5 11.67 (01:50) 8.61 (01:30) 0 0 0 0 0
03-10-2019 18.5 (17:20) 6.7 (00:00) 12.6 14.17 (17:50) 8.61 (15:40) 0 0 0 0 0
02-10-2019 14.5 (17:10) 5.1 (00:00) 9.8 20.83 (03:00) 13.89 (01:30) 0 0 0 0 0
01-10-2019 16.4 (16:10) 9.6 (00:00) 13 18.89 (23:30) 12.5 (23:40) 0 0 0 0 0
30-09-2019 23.9 (16:50) 11.2 (00:00) 17.5 8.89 (15:00) 6.67 (00:30) 0 0 0 0 0
29-09-2019 22.9 (16:00) 11.7 (00:00) 17.3 8.33 (15:00) 5.28 (17:30) 0 0 0 0 0
28-09-2019 22.1 (16:10) 9 (00:00) 15.6 10.28 (01:00) 7.5 (00:50) 0 0 0 0 0
27-09-2019 21.3 (15:40) 9.6 (00:00) 15.4 10 (17:10) 6.39 (19:00) 0 0 0 0 0
26-09-2019 21.6 (18:10) 9.2 (00:00) 15.4 7.5 (14:40) 5 (23:59) 0 0 0 0 0
25-09-2019 16.3 (16:50) 6.4 (00:00) 11.3 17.22 (06:00) 12.22 (04:20) 0 0 0 0 0
24-09-2019 19.6 (14:20) 9.5 (00:00) 14.6 16.11 (23:59) 10.28 (23:40) 0 0 0 0 0
23-09-2019 17.1 (16:40) 5.4 (00:00) 11.3 8.06 (00:40) 5.83 (00:40) 0 0 0 0 0
22-09-2019 13.2 (15:50) 7 (00:00) 10.1 13.61 (14:20) 9.17 (14:40) 4.8 2.5 2.3 0 0
21-09-2019 12 (18:00) 9.3 (00:00) 10.7 13.33 (20:50) 6.67 (20:50) 2.7 0.1 0 1 1.6
20-09-2019 16.4 (16:40) 11.1 (00:00) 13.8 12.22 (19:30) 6.39 (15:40) 15.9 0 0 0 15.9

Gráficas

Temp. máximas Temp. mínimas Temp. medias Precipitaciones Rachas de viento máximas Velocidades máximas media en intervalos de 10 minutos

Datos horarios

Fecha y hora oficial Temperatura (ºC) Velocidad del viento (km/h) Dirección del viento Racha (km/h) Dirección de racha Precipitación (mm) Presión (hPa) Tendencia (hPa) Humedad (%)
2019-10-19 23:00:00 7.2 11 Sudeste 27 Sur 0.5 836.7 -1.9 81
2019-10-19 22:00:00 7.6 10 Sudeste 24 Este 3.1 837.6 -1.3 81
2019-10-19 21:00:00 7.3 11 Sudeste 19 Este 4.8 837.5 -2.1 81
2019-10-19 20:00:00 7.1 8 Este 26 Este 0.7 838.6 -1 81
2019-10-19 19:00:00 6.8 15 Sudeste 28 Sudeste 1.4 838.9 -0.8 81
2019-10-19 18:00:00 6.8 15 Este 39 Sudeste 0.7 839.6 -0.7 81
2019-10-19 17:00:00 6.9 19 Este 45 Sudeste 0 839.6 -1.4 81
2019-10-19 16:00:00 6.7 22 Sudeste 38 Sudeste 0 839.7 -2.1 81
2019-10-19 15:00:00 6.5 21 Este 37 Sudeste 0 840.3 -1.8 81
2019-10-19 14:00:00 6 17 Sudeste 28 Este 0 841 -0.9 81
2019-10-19 13:00:00 5.1 18 Este 35 Este 0 841.8 -0.3 81
2019-10-19 12:00:00 4.8 18 Este 34 Este 0 842.1 0.2 81
2019-10-19 11:00:00 4.6 19 Sudeste 30 Este 0 841.9 -0.2 81
2019-10-19 10:00:00 4.5 15 Sudeste 27 Sudeste 0 842.1 -0.5 81
2019-10-19 09:00:00 4.8 17 Este 25 Este 0 841.9 -0.9 81
2019-10-19 08:00:00 4.5 11 Este 18 Este 0 842.1 -1.3 81
2019-10-19 07:00:00 4.9 5 Noroeste 27 Noroeste 0 842.6 -1.1 81
2019-10-19 06:00:00 5.2 18 Noroeste 26 Oeste 0 842.8 -1.5 81
2019-10-19 05:00:00 5.1 6 Noroeste 12 Noroeste 0 843.4 -1.4 79
2019-10-19 04:00:00 5.7 6 Este 10 Sudeste 0 843.7 -1.5 79
2019-10-19 03:00:00 5.9 0 Calma 9 Sudeste 0 844.3 -1.3 73
2019-10-19 02:00:00 6.8 2 Sudeste 12 Sudeste 0 844.8 -1.2 64
2019-10-19 01:00:00 6.9 5 Sudeste 12 Sudeste 0 845.2 -1.1 71
2019-10-19 00:00:00 8.6 0 Calma 16 Oeste 0 845.6 -0.9 55
2019-10-18 23:00:00 8.8 12 Oeste 35 Oeste 0 846 -0.5 54
2019-10-18 22:00:00 9.2 7 Oeste 22 Oeste 0 846.3 0 57
2019-10-18 21:00:00 9.2 6 Noroeste 16 Sudeste 0 846.5 -0.2 64
2019-10-18 20:00:00 10.1 5 Nordeste 29 Sudoeste 0 846.5 -0.6 67
2019-10-18 19:00:00 11.5 9 Sudeste 21 Sur 0 846.3 -1.1 53
2019-10-18 18:00:00 12.4 7 Sur 16 Sur 0 846.7 -1.2 60
2019-10-18 17:00:00 14 7 Sudoeste 19 Oeste 0 847.1 -1.4 50
2019-10-18 16:00:00 15.3 9 Oeste 23 Sudoeste 0 847.4 -1.5 49
2019-10-18 15:00:00 14.8 5 Oeste 17 Sudoeste 0 847.9 -1.1 44
2019-10-18 14:00:00 11.9 7 Este 21 Sudoeste 0 848.5 -0.6 80
2019-10-18 13:00:00 11.5 4 Sudeste 12 Sur 0 848.9 0 80
2019-10-18 12:00:00 10.6 8 Noroeste 23 Noroeste 0 849 0.4 80
2019-10-18 11:00:00 10 12 Noroeste 28 Oeste 0 849.1 0.5 80
2019-10-18 10:00:00 10.2 15 Noroeste 23 Oeste 0 848.9 0.4 80
2019-10-18 09:00:00 9.9 10 Noroeste 21 Oeste 0 848.6 0.1 80
2019-10-18 08:00:00 10 10 Oeste 20 Oeste 0.1 848.6 0 80
2019-10-18 07:00:00 9.5 5 Este 17 Este 0.1 848.5 -0.4 80
2019-10-18 06:00:00 9.4 9 Este 18 Este 0.1 848.5 -0.9 80
2019-10-18 05:00:00 9.2 10 Sudeste 20 Este 0.2 848.6 -0.8 80
2019-10-18 04:00:00 9.2 12 Este 23 Este 0.1 848.9 -1 80
2019-10-18 03:00:00 9.1 9 Este 17 Este 0.1 849.4 -0.6 80
2019-10-18 02:00:00 9.2 8 Este 18 Sur 0 849.4 -0.8 80
2019-10-18 01:00:00 9.7 8 Sur 22 Sudeste 0 849.9 -0.3 80
2019-10-18 00:00:00 9.1 14 Este 24 Este 0.2 850 -0.2 80
2019-10-17 23:00:00 9.2 14 Sudeste 21 Sudeste 0 850.2 0.3 80
2019-10-17 22:00:00 9.3 12 Sudeste 16 Este 0 850.2 0.6 80
2019-10-17 21:00:00 9.3 8 Este 12 Este 0 850.2 0.8 80
2019-10-17 20:00:00 9 9 Este 16 Este 0 849.9 0.5 80
2019-10-17 19:00:00 9.1 11 Este 17 Este 0 849.6 0.1 80
2019-10-17 18:00:00 9 12 Este 20 Este 0 849.4 -0.3 79
2019-10-17 17:00:00 9.2 12 Este 22 Este 0 849.4 -0.5 79
2019-10-17 16:00:00 9.1 10 Este 19 Sudeste 0 849.5 -0.3 80
2019-10-17 15:00:00 8.9 9 Este 28 Noroeste 0 849.7 -0.2 77
2019-10-17 14:00:00 14 17 Noroeste 35 Noroeste 0 849.9 0.1 55
2019-10-17 13:00:00 11.3 17 Noroeste 33 Noroeste 0 849.8 0.3 73
2019-10-17 12:00:00 10.8 16 Noroeste 29 Noroeste 0.1 849.9 1.2 77
2019-10-17 11:00:00 9.6 14 Noroeste 28 Oeste 0.9 849.8 1.4 80
2019-10-17 10:00:00 8.8 14 Noroeste 29 Noroeste 1.3 849.5 1.4 80
2019-10-17 09:00:00 8 16 Noroeste 28 Noroeste 1.6 848.7 0.9 80
2019-10-17 08:00:00 8 12 Noroeste 17 Noroeste 0.1 848.4 0.3 67
2019-10-17 07:00:00 9.5 10 Noroeste 18 Noroeste 0 848.1 -0.2 50
2019-10-17 06:00:00 8.5 9 Noroeste 14 Noroeste 0 847.8 -0.8 49
2019-10-17 05:00:00 7 10 Sudeste 20 Este 0 848.1 -1 50
2019-10-17 04:00:00 6.3 12 Sudeste 24 Este 0 848.3 -1 51
2019-10-17 03:00:00 6.6 9 Este 18 Sudeste 0 848.6 -1.1 51
2019-10-17 02:00:00 7.4 12 Sudeste 21 Sudeste 0 849.1 -0.4 46
2019-10-17 01:00:00 7.1 10 Este 22 Sudeste 0 849.3 -0.2 46
2019-10-17 00:00:00 6.8 9 Sudeste 19 Sudeste 0 849.7 0 45
2019-10-16 23:00:00 7 15 Sudeste 23 Este 0 849.5 0 43
2019-10-16 22:00:00 6.9 14 Sudeste 19 Sudeste 0 849.5 0.4 42
2019-10-16 21:00:00 6.9 12 Este 17 Este 0 849.7 0.8 43
2019-10-16 20:00:00 7.3 10 Este 18 Sur 0 849.5 0.5 44
2019-10-16 19:00:00 9.2 12 Sudeste 22 Sudeste 0 849.1 -0.4 40
2019-10-16 18:00:00 10.7 13 Este 25 Sudeste 0 848.9 -0.9 40
2019-10-16 17:00:00 11.1 12 Este 25 Sudeste 0 849 -1.2 38
2019-10-16 16:00:00 11.2 13 Sudeste 22 Sudeste 0 849.5 -1.2 40
2019-10-16 15:00:00 10.7 10 Sudeste 27 Sudeste 0 849.8 -1.1 42
2019-10-16 14:00:00 9.3 14 Este 24 Este 0 850.2 -0.6 46
2019-10-16 13:00:00 8.2 15 Este 22 Sudeste 0 850.7 0.2 48
2019-10-16 12:00:00 7.8 4 Oeste 20 Oeste 0 850.9 1 43
2019-10-16 11:00:00 6.3 14 Oeste 26 Oeste 0 850.8 1.1 55
2019-10-16 10:00:00 5.5 14 Noroeste 22 Noroeste 0 850.5 0.9 58
2019-10-16 09:00:00 3.2 18 Noroeste 24 Noroeste 0 849.9 0.2 64
2019-10-16 08:00:00 3.8 15 Oeste 22 Oeste 0 849.7 -0.3 61
2019-10-16 07:00:00 3 10 Noroeste 14 Noroeste 0 849.6 -0.7 61
2019-10-16 06:00:00 3.7 9 Oeste 15 Noroeste 0 849.7 -1 57
2019-10-16 05:00:00 4.5 7 Noroeste 11 Noroeste 0 850 -1 52
2019-10-16 04:00:00 4.3 8 Noroeste 13 Noroeste 0 850.3 -0.9 54
2019-10-16 03:00:00 4.8 6 Noroeste 11 Noroeste 0 850.7 -0.5 53
2019-10-16 02:00:00 4.6 9 Noroeste 13 Noroeste 0 851 -0.2 56
2019-10-16 01:00:00 4.3 11 Noroeste 15 Noroeste 0 851.2 0.6 58
2019-10-16 00:00:00 5 11 Noroeste 21 Noroeste 0 851.2 0.8 58
2019-10-15 23:00:00 4.2 16 Noroeste 29 Oeste 0 851.2 0.7 61
2019-10-15 22:00:00 3.7 21 Noroeste 35 Noroeste 0 850.6 0.5 62
2019-10-15 21:00:00 4.5 22 Noroeste 31 Noroeste 0 850.4 0.3 57
2019-10-15 20:00:00 5.4 18 Noroeste 33 Oeste 0 850.5 0.2 51
2019-10-15 19:00:00 6.6 19 Noroeste 32 Noroeste 0 850.1 -0.1 44
2019-10-15 18:00:00 7.9 19 Noroeste 30 Noroeste 0 850.1 -0.4 40
2019-10-15 17:00:00 8.6 15 Noroeste 30 Noroeste 0 850.3 -0.1 39
2019-10-15 16:00:00 7.6 16 Noroeste 30 Noroeste 0 850.2 -0.5 42
2019-10-15 15:00:00 7.4 18 Noroeste 32 Noroeste 0 850.5 -0.2 47
2019-10-15 14:00:00 5.7 20 Noroeste 38 Noroeste 0 850.4 0.9 49
2019-10-15 13:00:00 5.7 24 Noroeste 43 Oeste 0 850.7 1.8 52
2019-10-15 12:00:00 3.2 24 Noroeste 49 Noroeste 0 850.7 2.4 63
2019-10-15 11:00:00 2.4 35 Noroeste 60 Noroeste 0 849.5 1.8 81
2019-10-15 10:00:00 1.5 40 Noroeste 58 Oeste 0 848.9 1.2 81
2019-10-15 09:00:00 0.9 42 Noroeste 58 Noroeste 0 848.3 0.9 81
2019-10-15 08:00:00 0.8 36 Noroeste 58 Noroeste 0 847.7 0.7 82
2019-10-15 07:00:00 0.8 33 Noroeste 50 Noroeste 0 847.7 1 82
2019-10-15 06:00:00 0.4 31 Noroeste 57 Noroeste 0 847.4 0.1 82
2019-10-15 05:00:00 0.4 35 Noroeste 62 Oeste 0 847 0 82
2019-10-15 04:00:00 0.9 40 Noroeste 61 Noroeste 0 846.7 0.4 81
2019-10-15 03:00:00 1.1 37 Noroeste 63 Oeste 0 847.3 1.7 82
2019-10-15 02:00:00 1.2 39 Noroeste 64 Oeste 0 847 1.6 82
2019-10-15 01:00:00 1.5 43 Noroeste 70 Noroeste 0 846.3 1.1 82
2019-10-15 00:00:00 2.3 43 Noroeste 69 Noroeste 0 845.6 0.3 81
2019-10-14 23:00:00 2.2 42 Noroeste 66 Oeste 0 845.4 1 82
2019-10-14 22:00:00 2.4 41 Noroeste 62 Noroeste 0 845.2 0.8 82
2019-10-14 21:00:00 2.4 40 Noroeste 72 Oeste 0.5 845.3 0.7 82
2019-10-14 20:00:00 3.6 37 Noroeste 56 Noroeste 0.1 844.4 0.2 82
2019-10-14 19:00:00 3.1 29 Noroeste 67 Noroeste 2.9 844.4 0.7 81
2019-10-14 18:00:00 4.4 31 Noroeste 58 Noroeste 4.2 844.6 0.7 81
2019-10-14 17:00:00 9.5 14 Sudoeste 41 Oeste 0 844.2 -0.4 42
2019-10-14 16:00:00 11.4 23 Oeste 41 Oeste 0 843.7 -1.4 36
2019-10-14 15:00:00 11.6 21 Sudoeste 37 Oeste 0 843.9 -1 33
2019-10-14 14:00:00 11.5 8 Sur 38 Oeste 0 844.6 0.5 40
2019-10-14 13:00:00 10.3 7 Oeste 35 Sudeste 0 845.1 1 56
2019-10-14 12:00:00 8.6 8 Sudoeste 37 Sudoeste 0.3 844.9 1.3 76
2019-10-14 11:00:00 8.5 16 Sur 50 Sur 0.1 844.1 0.3 71
2019-10-14 10:00:00 10.1 10 Sudoeste 42 Sudoeste 0 844.1 1.1 60
2019-10-14 09:00:00 9.9 10 Sur 44 Oeste 0 843.6 0.5 64
2019-10-14 08:00:00 9.7 8 Este 37 Este 0 843.8 0.1 59
2019-10-14 07:00:00 9.4 18 Este 33 Este 0 843 -1.3 59
2019-10-14 06:00:00 9.5 15 Este 27 Este 0 843.1 -2.1 60
2019-10-14 05:00:00 10.4 15 Este 30 Este 0 843.7 -2 54
2019-10-14 04:00:00 11.7 17 Este 31 Este 0 844.3 -2.4 51
2019-10-14 03:00:00 11.6 16 Este 32 Este 0 845.2 -2 52
2019-10-14 02:00:00 11.6 16 Este 26 Este 0 845.7 -1.9 50
2019-10-14 01:00:00 11.9 12 Este 22 Sudeste 0 846.7 -1.2 47
2019-10-14 00:00:00 12.1 15 Este 26 Sudeste 0 847.2 -0.7 49
2019-10-13 23:00:00 11.9 13 Este 22 Este 0 847.6 -0.3 50
2019-10-13 22:00:00 11.9 12 Este 20 Este 0 847.9 0 53
2019-10-13 21:00:00 12 14 Sudeste 30 Sudeste 0 847.9 0 50
2019-10-13 20:00:00 12.1 17 Sudeste 28 Sudeste 0 847.9 -0.2 48
2019-10-13 19:00:00 13.1 15 Sudeste 32 Sudeste 0 847.9 -0.5 40
2019-10-13 18:00:00 14.1 16 Sudeste 36 Sudeste 0 847.9 -0.6 36
2019-10-13 17:00:00 14.7 21 Sudeste 39 Sudeste 0 848.1 -0.7 36
2019-10-13 16:00:00 15.1 15 Sudeste 29 Sudeste 0 848.4 -0.3 38
2019-10-13 15:00:00 14.9 16 Sudeste 35 Este 0 848.5 -0.3 43
2019-10-13 14:00:00 12 17 Este 41 Este 0 848.8 0 57
2019-10-13 13:00:00 12.9 23 Sudeste 37 Sudeste 0 848.7 0.3 53
2019-10-13 12:00:00 11.9 21 Este 41 Este 0 848.8 0.3 65
2019-10-13 11:00:00 10.9 15 Sudeste 30 Este 0 848.8 1.1 76
2019-10-13 10:00:00 10.5 11 Este 35 Sudeste 0 848.4 1.1 81
2019-10-13 09:00:00 10.5 3 Este 29 Este 0 848.5 1.6 81
2019-10-13 08:00:00 10.3 14 Este 36 Sudeste 0 847.7 0.3 81
2019-10-13 07:00:00 10.5 21 Sudeste 42 Este 0 847.3 -0.5 81
2019-10-13 06:00:00 10.3 22 Sudeste 42 Este 0 846.9 -1.5 80
2019-10-13 05:00:00 10.2 19 Este 35 Este 0 847.4 -1.5 69
2019-10-13 04:00:00 10.7 18 Sudeste 34 Sudeste 0 847.8 -1.5 64
2019-10-13 03:00:00 9.7 17 Este 28 Sudeste 0 848.4 -1.1 66
2019-10-13 02:00:00 10.3 15 Este 23 Este 0 848.9 -0.8 64
2019-10-13 01:00:00 10.5 13 Este 32 Este 0 849.3 -0.9 64
2019-10-13 00:00:00 10.8 17 Este 29 Este 0 849.5 0.2 63
2019-10-12 23:00:00 11 14 Este 30 Este 0 849.7 0.3 65
2019-10-12 22:00:00 11.5 15 Sudeste 31 Este 0 850.2 1.2 72
2019-10-12 21:00:00 11.7 13 Sudeste 22 Sudeste 0 849.3 0.3 60
2019-10-12 20:00:00 12.3 9 Sudeste 39 Oeste 5.5 849.4 0.1 65
2019-10-12 19:00:00 16.2 14 Este 30 Este 0 849 -0.6 36
2019-10-12 18:00:00 17.4 17 Sudeste 37 Este 0 849 -1.1 37
2019-10-12 17:00:00 18.9 18 Sudeste 39 Este 0 849.3 -1.4 35
2019-10-12 16:00:00 18.2 22 Este 37 Sudeste 0 849.6 -1.3 39
2019-10-12 15:00:00 16 17 Sudeste 28 Sudeste 0 850.1 -1 47
2019-10-12 14:00:00 15.8 18 Sudeste 34 Sudeste 0 850.7 -0.3 48
2019-10-12 13:00:00 15.8 19 Este 31 Sudeste 0 850.9 0.2 47
2019-10-12 12:00:00 13.9 15 Sudeste 24 Este 0 851.1 0.7 54
2019-10-12 11:00:00 12.6 14 Este 21 Este 0 851 0.8 67
2019-10-12 10:00:00 12 14 Sudeste 24 Este 0 850.7 0.4 67
2019-10-12 09:00:00 11.7 14 Este 21 Este 0 850.4 0.2 66
2019-10-12 08:00:00 12.4 14 Este 19 Este 0 850.2 -0.2 62
2019-10-12 07:00:00 13.3 12 Sudeste 18 Sudeste 0 850.3 -0.6 59
2019-10-12 06:00:00 13.4 12 Este 17 Este 0 850.2 -1 61
2019-10-12 05:00:00 13.8 8 Este 14 Sudeste 0 850.4 -1.2 57
2019-10-12 04:00:00 15.4 8 Sudeste 11 Sudeste 0 850.9 -0.6 47
2019-10-12 03:00:00 14.9 9 Sudeste 15 Este 0 851.2 -0.7 56
2019-10-12 02:00:00 15 6 Este 17 Este 0 851.6 -0.2 55
2019-10-12 01:00:00 15.3 8 Este 14 Este 0 851.5 -0.4 54
2019-10-12 00:00:00 15.5 9 Este 13 Este 0 851.9 0.6 54
2019-10-11 23:00:00 15.4 9 Sudeste 17 Este 0 851.8 0.3 54
2019-10-11 22:00:00 15.5 9 Este 20 Sudeste 0 851.9 0.4 51
2019-10-11 21:00:00 15.5 13 Sudeste 20 Sudeste 0 851.3 -0.2 51
2019-10-11 20:00:00 15.7 10 Este 20 Este 0 851.5 -0.1 50
2019-10-11 19:00:00 16.8 12 Sudeste 27 Sudeste 0 851.5 -0.5 46
2019-10-11 18:00:00 17.3 15 Sudeste 31 Sudeste 0 851.5 -1.2 45
2019-10-11 17:00:00 19.4 15 Sudeste 32 Este 0 851.6 -1.6 41
2019-10-11 16:00:00 18.5 17 Este 31 Este 0 852 -1.7 42
2019-10-11 15:00:00 18.6 17 Sudeste 28 Sudeste 0 852.7 -1.3 44
2019-10-11 14:00:00 17.8 16 Sudeste 30 Este 0 853.2 -0.9 47
2019-10-11 13:00:00 17 18 Este 31 Este 0 853.7 0.1 50
2019-10-11 12:00:00 16.1 18 Este 28 Sudeste 0 854 1 56
2019-10-11 11:00:00 15.1 16 Sudeste 24 Sudeste 0 854.1 1.2 62
2019-10-11 10:00:00 13 17 Sudeste 24 Sudeste 0 853.6 0.9 71
2019-10-11 09:00:00 11.8 16 Este 24 Sudeste 0 853 0.3 76
2019-10-11 08:00:00 11.5 16 Sudeste 22 Este 0 852.9 0.1 73
2019-10-11 07:00:00 12.2 15 Sudeste 19 Sudeste 0 852.7 -0.4 68
2019-10-11 06:00:00 12.7 15 Sudeste 22 Sudeste 0 852.7 -0.6 64
2019-10-11 05:00:00 13.1 16 Sudeste 22 Este 0 852.8 -0.6 63
2019-10-11 04:00:00 13.1 14 Este 22 Este 0 853.1 -0.4 58
2019-10-11 03:00:00 13 16 Sudeste 22 Sudeste 0 853.3 -0.3 54
2019-10-11 02:00:00 13.4 15 Sudeste 22 Este 0 853.4 0.1 48
2019-10-11 01:00:00 14 15 Sudeste 22 Sudeste 0 853.5 0.2 45
2019-10-11 00:00:00 14.6 10 Sudeste 14 Sudeste 0 853.6 0.7 41
2019-10-10 23:00:00 16.8 8 Oeste 18 Oeste 0 853.3 0.6 29
2019-10-10 22:00:00 13.5 10 Este 15 Sudeste 0 853.3 0.9 47
2019-10-10 21:00:00 14.9 10 Sudeste 17 Sudeste 0 852.9 0.5 43
2019-10-10 20:00:00 15.3 9 Sudeste 33 Sudeste 0 852.7 0.3 41
2019-10-10 19:00:00 16.2 9 Sudeste 18 Sudeste 0 852.4 0 39
2019-10-10 18:00:00 17.9 9 Sudeste 20 Este 0 852.4 -0.5 37
2019-10-10 17:00:00 18.1 11 Sudeste 21 Este 0 852.4 -1 39
2019-10-10 16:00:00 17.2 13 Este 23 Sudeste 0 852.4 -1 43
2019-10-10 15:00:00 17.4 14 Este 26 Este 0 852.9 -0.5 44
2019-10-10 14:00:00 16.3 13 Este 28 Sudeste 0 853.4 0.1 50
2019-10-10 13:00:00 14.5 19 Sudeste 31 Sudeste 0 853.4 0.7 56
2019-10-10 12:00:00 13.7 16 Este 28 Este 0 853.4 1.1 60
2019-10-10 11:00:00 11.7 17 Este 29 Sudeste 0 853.3 1.2 67
2019-10-10 10:00:00 11.6 18 Este 50 Sudeste 0 852.7 0.7 60
2019-10-10 09:00:00 10.4 18 Sudeste 50 Sudeste 0 852.3 0.6 50
2019-10-10 08:00:00 10.7 17 Sudeste 22 Sudeste 0 852.1 0.4 49
2019-10-10 07:00:00 10.6 14 Sudeste 21 Este 0 852 0.2 47
2019-10-10 06:00:00 10.3 13 Sudeste 17 Sudeste 0 851.7 -0.3 47
2019-10-10 05:00:00 11.8 12 Sudeste 17 Este 0 851.7 -0.4 43
2019-10-10 04:00:00 11.5 3 Sudoeste 8 Noroeste 0 851.8 -0.5 44
2019-10-10 03:00:00 11.3 5 Noroeste 13 Oeste 0 852 -0.1 44
2019-10-10 02:00:00 9.8 12 Oeste 15 Oeste 0 852.1 0 47
2019-10-10 01:00:00 10 10 Noroeste 14 Noroeste 0 852.3 0.4 44
2019-10-10 00:00:00 9.8 10 Oeste 22 Oeste 0 852.1 0.6 42
2019-10-09 23:00:00 10.9 15 Oeste 23 Oeste 0 852.1 0.9 39
2019-10-09 22:00:00 12.4 19 Oeste 33 Oeste 0 851.9 1 34
2019-10-09 21:00:00 14.1 20 Oeste 32 Oeste 0 851.5 0.8 30
2019-10-09 20:00:00 14.7 19 Oeste 28 Oeste 0 851.2 0.3 25
2019-10-09 19:00:00 17.6 18 Noroeste 28 Oeste 0 850.9 -0.3 20
2019-10-09 18:00:00 18.5 20 Noroeste 35 Noroeste 0 850.7 -0.5 18
2019-10-09 17:00:00 18.8 22 Noroeste 35 Oeste 0 850.9 -0.7 19
2019-10-09 16:00:00 19 19 Oeste 29 Oeste 0 851.2 -0.3 22
2019-10-09 15:00:00 17.8 20 Oeste 30 Noroeste 0 851.2 -0.6 25
2019-10-09 14:00:00 16.6 19 Noroeste 29 Noroeste 0 851.6 0 38
2019-10-09 13:00:00 15.3 19 Noroeste 33 Oeste 0 851.5 0.5 48
2019-10-09 12:00:00 13.7 19 Oeste 37 Noroeste 0 851.8 1.1 60
2019-10-09 11:00:00 10.8 27 Noroeste 46 Noroeste 0 851.6 0.8 81
2019-10-09 10:00:00 10.7 29 Noroeste 40 Oeste 0 851 0.3 82
2019-10-09 09:00:00 10.8 29 Noroeste 42 Noroeste 0 850.7 0 81
2019-10-09 08:00:00 10.7 31 Noroeste 47 Noroeste 0 850.8 0.2 81
2019-10-09 07:00:00 10.3 27 Noroeste 35 Noroeste 0 850.7 -0.3 80
2019-10-09 06:00:00 10.5 18 Noroeste 29 Noroeste 0 850.7 -0.5 79
2019-10-09 05:00:00 11.3 23 Noroeste 35 Noroeste 0 850.6 -0.9 76
2019-10-09 04:00:00 12.2 26 Noroeste 37 Oeste 0 851 -0.9 67
2019-10-09 03:00:00 13.1 20 Oeste 25 Oeste 0 851.2 -0.8 57
2019-10-09 02:00:00 13.2 19 Noroeste 26 Oeste 0 851.5 -0.4 53
2019-10-09 01:00:00 14.2 19 Noroeste 28 Oeste 0 851.9 -0.1 48
2019-10-09 00:00:00 15.2 20 Oeste 31 Oeste 0 852 -0.1 43
2019-10-08 23:00:00 15.9 19 Noroeste 26 Oeste 0 851.9 0.2 37
2019-10-08 22:00:00 17 16 Oeste 24 Oeste 0 852 0.7 33
2019-10-08 21:00:00 17.3 10 Oeste 13 Oeste 0 852.1 0.5 32
2019-10-08 20:00:00 19.2 5 Noroeste 9 Este 0 851.7 -0.1 29
2019-10-08 19:00:00 20.3 7 Este 13 Nordeste 0 851.3 -0.8 27
2019-10-08 18:00:00 22 8 Sudeste 16 Sudeste 0 851.6 -0.6 25
2019-10-08 17:00:00 21.8 9 Sudeste 21 Este 0 851.8 -0.9 26
2019-10-08 16:00:00 22.1 13 Sudeste 25 Sudeste 0 852.1 -1.2 26
2019-10-08 15:00:00 21.3 12 Sudeste 24 Sudeste 0 852.2 -1.5 27
2019-10-08 14:00:00 20.6 12 Este 22 Este 0 852.7 -0.7 29
2019-10-08 13:00:00 19 10 Sudeste 19 Este 0 853.3 0.2 30
2019-10-08 12:00:00 17.5 11 Este 20 Este 0 853.7 0.7 33
2019-10-08 11:00:00 16.9 14 Este 22 Sudeste 0 853.4 0.6 35
2019-10-08 10:00:00 17.1 8 Este 13 Sudeste 0 853.1 0.4 34
2019-10-08 09:00:00 15.7 10 Sudeste 13 Sudeste 0 853 0.4 35
2019-10-08 08:00:00 15 2 Este 10 Oeste 0 852.8 0 35
2019-10-08 07:00:00 15.1 9 Oeste 12 Oeste 0 852.7 -0.5 34
2019-10-08 06:00:00 15 3 Oeste 10 Noroeste 0 852.6 -0.8 34
2019-10-08 05:00:00 15.1 9 Oeste 13 Oeste 0 852.8 -0.8 34
2019-10-08 04:00:00 15.4 10 Oeste 13 Oeste 0 853.2 -0.5 33
2019-10-08 03:00:00 15.2 9 Oeste 13 Noroeste 0 853.4 -0.5 32
2019-10-08 02:00:00 14.5 11 Noroeste 17 Oeste 0 853.6 -0.5 32
2019-10-08 01:00:00 14.1 13 Oeste 16 Oeste 0 853.7 0.1 33
2019-10-08 00:00:00 13.9 12 Oeste 16 Oeste 0 853.9 0.5 32
2019-10-07 23:00:00 14.8 13 Oeste 18 Oeste 0 854.1 0.8 31
2019-10-07 22:00:00 15.6 12 Oeste 18 Oeste 0 853.6 0.4 29
2019-10-07 21:00:00 15.5 13 Oeste 19 Noroeste 0 853.4 0.4 31
2019-10-07 20:00:00 16.5 14 Noroeste 26 Noroeste 0 853.3 0.2 29
2019-10-07 19:00:00 19.5 17 Noroeste 32 Oeste 0 853.2 0 26
2019-10-07 18:00:00 20.1 20 Noroeste 31 Noroeste 0 853 -0.2 25
2019-10-07 17:00:00 20.8 19 Oeste 33 Oeste 0 853.1 -0.4 25
2019-10-07 16:00:00 20.7 17 Noroeste 33 Noroeste 0 853.2 -0.3 26
2019-10-07 15:00:00 20 22 Noroeste 40 Noroeste 0 853.2 -0.5 26
2019-10-07 14:00:00 19 24 Noroeste 41 Noroeste 0 853.5 0.3 25
2019-10-07 13:00:00 16.8 22 Noroeste 33 Noroeste 0 853.5 0.7 29
2019-10-07 12:00:00 16 20 Noroeste 37 Noroeste 0 853.7 1.5 36
2019-10-07 11:00:00 12.9 25 Noroeste 41 Oeste 0 853.2 1.4 45
2019-10-07 10:00:00 10.3 25 Noroeste 37 Oeste 0 852.8 0.7 51
2019-10-07 09:00:00 8.6 26 Oeste 37 Oeste 0 852.2 0.6 55
2019-10-07 08:00:00 8.5 23 Oeste 32 Oeste 0 851.8 0.1 54
2019-10-07 07:00:00 9.2 20 Oeste 28 Noroeste 0 852.1 0.7 51
2019-10-07 06:00:00 9.3 19 Noroeste 35 Oeste 0 851.6 -0.9 49
2019-10-07 05:00:00 10.3 22 Oeste 47 Noroeste 0 851.7 -1.2 46
2019-10-07 04:00:00 10.6 36 Noroeste 49 Noroeste 0 851.4 -1.9 45
2019-10-07 03:00:00 9.9 31 Noroeste 42 Noroeste 0 852.5 -1.1 47
2019-10-07 02:00:00 10.6 28 Noroeste 38 Noroeste 0 852.9 -0.3 44
2019-10-07 01:00:00 11.6 20 Noroeste 28 Oeste 0 853.3 0.4 41
2019-10-07 00:00:00 11.2 16 Noroeste 33 Oeste 0 853.6 1 42
2019-10-06 23:00:00 11.5 22 Noroeste 34 Noroeste 0 853.2 0.6 40
2019-10-06 22:00:00 12.5 22 Noroeste 35 Noroeste 0 852.9 0.6 39
2019-10-06 21:00:00 13.3 24 Noroeste 38 Noroeste 0 852.6 0.4 37
2019-10-06 20:00:00 14.9 20 Noroeste 38 Noroeste 0 852.6 -0.2 29
2019-10-06 19:00:00 17.6 25 Noroeste 37 Noroeste 0 852.3 -0.6 23
2019-10-06 18:00:00 18.4 21 Noroeste 35 Noroeste 0 852.2 -0.8 22
2019-10-06 17:00:00 18.7 24 Noroeste 39 Oeste 0 852.8 -0.5 24
2019-10-06 16:00:00 17.8 24 Noroeste 36 Noroeste 0 852.9 -0.8 28
2019-10-06 15:00:00 18.4 23 Noroeste 39 Oeste 0 853 -0.6 31
2019-10-06 14:00:00 16.9 19 Oeste 45 Noroeste 0 853.3 0.1 37
2019-10-06 13:00:00 16 17 Noroeste 32 Noroeste 0 853.7 0.7 40
2019-10-06 12:00:00 15.7 16 Noroeste 23 Noroeste 0 853.6 1.1 39
2019-10-06 11:00:00 14.2 8 Oeste 24 Oeste 0 853.2 1.2 51
2019-10-06 10:00:00 10.7 19 Noroeste 25 Oeste 0 853 1.6 63
2019-10-06 09:00:00 8.9 19 Oeste 24 Oeste 0 852.5 0.6 68
2019-10-06 08:00:00 7.6 19 Noroeste 25 Noroeste 0 852 0.7 69
2019-10-06 07:00:00 8.8 18 Oeste 24 Oeste 0 851.4 -0.2 67
2019-10-06 06:00:00 8.2 20 Noroeste 25 Oeste 0 851.9 0.3 64
2019-10-06 05:00:00 9.4 21 Oeste 28 Oeste 0 851.3 -0.6 51
2019-10-06 04:00:00 9.7 19 Oeste 26 Oeste 0 851.6 -0.2 49
2019-10-06 03:00:00 9.4 21 Noroeste 28 Oeste 0 851.6 0 47
2019-10-06 02:00:00 10.3 24 Noroeste 39 Oeste 0 851.9 0.6 43
2019-10-06 01:00:00 11.1 29 Noroeste 40 Noroeste 0 851.8 0.6 40
2019-10-06 00:00:00 11.6 27 Noroeste 37 Oeste 0 851.6 0.5 42
2019-10-05 23:00:00 12.3 27 Noroeste 36 Noroeste 0 851.3 0.5 41
2019-10-05 22:00:00 13 23 Noroeste 31 Noroeste 0 851.2 0.7 39
2019-10-05 21:00:00 14.7 19 Noroeste 27 Oeste 0 851.1 0.9 34
2019-10-05 20:00:00 16.1 19 Noroeste 30 Oeste 0 850.8 0.7 29
2019-10-05 19:00:00 19.2 19 Noroeste 28 Noroeste 0 850.5 0.3 23
2019-10-05 18:00:00 20.7 15 Noroeste 29 Noroeste 0 850.2 -0.2 22
2019-10-05 17:00:00 20.7 12 Noroeste 29 Noroeste 0 850.1 -0.5 24
2019-10-05 16:00:00 21.5 10 Oeste 19 Oeste 0 850.2 -0.6 25
2019-10-05 15:00:00 20.5 6 Sudeste 20 Sur 0 850.4 -0.4 29
2019-10-05 14:00:00 20 8 Sudeste 19 Sudeste 0 850.6 -0.1 33
2019-10-05 13:00:00 18.4 0 Calma 15 Sudeste 0 850.8 0.5 36
2019-10-05 12:00:00 16.6 6 Sudeste 17 Este 0 850.8 0.7 40
2019-10-05 11:00:00 15.3 10 Este 18 Sudeste 0 850.7 1.2 45
2019-10-05 10:00:00 13.6 6 Este 11 Este 0 850.3 1 51
2019-10-05 09:00:00 12.4 0 Calma 6 Noroeste 0 850.1 0.6 56
2019-10-05 08:00:00 10.7 5 Oeste 12 Oeste 0 849.5 -0.1 61
2019-10-05 07:00:00 11 9 Oeste 14 Oeste 0 849.3 -0.5 59
2019-10-05 06:00:00 11.5 10 Oeste 23 Oeste 0 849.5 -0.5 60
2019-10-05 05:00:00 12.2 14 Oeste 23 Oeste 0 849.6 -0.4 61
2019-10-05 04:00:00 11.3 14 Oeste 28 Oeste 0 849.8 -0.6 67
2019-10-05 03:00:00 11.1 19 Oeste 28 Oeste 0 850 -0.5 69
2019-10-05 02:00:00 12.1 22 Noroeste 33 Oeste 0 850 -0.6 64
2019-10-05 01:00:00 12.2 22 Noroeste 29 Oeste 0 850.4 -0.2 64
2019-10-05 00:00:00 12 17 Noroeste 23 Oeste 0 850.5 0 69
2019-10-04 23:00:00 12.4 17 Noroeste 25 Oeste 0 850.6 0.3 68
2019-10-04 22:00:00 13.2 15 Oeste 22 Oeste 0 850.6 0.6 64
2019-10-04 21:00:00 13.9 14 Oeste 19 Oeste 0 850.5 0.5 61
2019-10-04 20:00:00 14.7 12 Oeste 20 Noroeste 0 850.3 0 53
2019-10-04 19:00:00 17.5 14 Noroeste 21 Noroeste 0 850 -0.7 41
2019-10-04 18:00:00 18.5 14 Noroeste 25 Oeste 0 850 -1.1 37
2019-10-04 17:00:00 19.1 15 Oeste 32 Noroeste 0 850.3 -1 37
2019-10-04 16:00:00 18.4 19 Noroeste 34 Oeste 0 850.7 -0.8 38
2019-10-04 15:00:00 18.5 18 Noroeste 28 Noroeste 0 851.1 -0.7 36
2019-10-04 14:00:00 18.9 9 Este 21 Sudeste 0 851.3 -0.4 25
2019-10-04 13:00:00 18.1 10 Este 21 Este 0 851.5 -0.2 26
2019-10-04 12:00:00 17.1 9 Este 21 Este 0 851.8 0.5 27
2019-10-04 11:00:00 16.1 11 Este 17 Este 0 851.7 0.4 29
2019-10-04 10:00:00 15.2 5 Este 17 Este 0 851.7 0.5 32
2019-10-04 09:00:00 14.1 11 Este 16 Este 0 851.3 -0.1 32
2019-10-04 08:00:00 13 10 Sudeste 14 Este 0 851.3 -0.4 33
2019-10-04 07:00:00 12.3 8 Este 9 Este 0 851.2 -0.6 34
2019-10-04 06:00:00 12.5 0 Calma 16 Oeste 0 851.4 -0.8 42
2019-10-04 05:00:00 11.2 14 Oeste 25 Noroeste 0 851.7 -0.6 52
2019-10-04 04:00:00 10.4 20 Noroeste 35 Oeste 0 851.8 -0.5 52
2019-10-04 03:00:00 11 26 Oeste 39 Noroeste 0 852.2 0 40
2019-10-04 02:00:00 11.8 26 Oeste 42 Oeste 0 852.3 -0.1 35
2019-10-04 01:00:00 11.1 28 Noroeste 36 Noroeste 0 852.3 -0.1 34
2019-10-04 00:00:00 11.7 29 Noroeste 38 Oeste 0 852.2 0.1 32
2019-10-03 23:00:00 13.2 21 Noroeste 29 Noroeste 0 852.4 0.8 29
2019-10-03 22:00:00 13.3 15 Oeste 24 Noroeste 0 852.4 1 29
2019-10-03 21:00:00 13 18 Noroeste 28 Noroeste 0 852.1 0.8 27
2019-10-03 20:00:00 14.7 21 Noroeste 41 Noroeste 0 851.6 0 23
2019-10-03 19:00:00 16.8 25 Noroeste 44 Noroeste 0 851.4 -0.3 22
2019-10-03 18:00:00 18 28 Noroeste 51 Noroeste 0 851.3 -0.5 20
2019-10-03 17:00:00 17.5 27 Noroeste 42 Oeste 0 851.6 -0.6 21
2019-10-03 16:00:00 16.8 30 Noroeste 44 Noroeste 0 851.7 -0.3 22
2019-10-03 15:00:00 17.1 22 Noroeste 34 Noroeste 0 851.8 -0.3 24
2019-10-03 14:00:00 16 21 Oeste 41 Oeste 0 852.2 0.3 27
2019-10-03 13:00:00 14.4 27 Oeste 41 Oeste 0 852 0.5 32
2019-10-03 12:00:00 12.4 29 Noroeste 44 Oeste 0 852.1 1.1 38
2019-10-03 11:00:00 10.4 28 Noroeste 44 Oeste 0 851.9 1 43
2019-10-03 10:00:00 9 29 Noroeste 45 Noroeste 0 851.5 0.7 45
2019-10-03 09:00:00 7.9 27 Noroeste 40 Oeste 0 851 0.4 47
2019-10-03 08:00:00 8.2 23 Oeste 35 Oeste 0 850.9 0.1 45
2019-10-03 07:00:00 6.8 21 Noroeste 27 Noroeste 0 850.8 -0.2 49
2019-10-03 06:00:00 7.6 18 Noroeste 30 Oeste 0 850.6 -0.9 46
2019-10-03 05:00:00 8 14 Oeste 19 Oeste 0 850.8 -0.7 44
2019-10-03 04:00:00 8.6 14 Oeste 22 Oeste 0 851 -1 44
2019-10-03 03:00:00 7.3 16 Noroeste 20 Noroeste 0 851.5 -0.7 47
2019-10-03 02:00:00 8.7 12 Oeste 18 Oeste 0 851.5 -0.6 44
2019-10-03 01:00:00 8.6 12 Oeste 22 Oeste 0 852 0.1 43
2019-10-03 00:00:00 8.5 15 Oeste 23 Oeste 0 852.2 0.5 44
2019-10-02 23:00:00 9.3 17 Oeste 31 Oeste 0 852.1 0.4 42
2019-10-02 22:00:00 9.4 18 Oeste 28 Oeste 0 851.9 0.5 40
2019-10-02 21:00:00 9.6 18 Oeste 26 Oeste 0 851.7 0.8 38
2019-10-02 20:00:00 10.6 15 Oeste 29 Noroeste 0 851.7 0.8 35
2019-10-02 19:00:00 12.9 21 Noroeste 31 Noroeste 0 851.4 0.4 30
2019-10-02 18:00:00 13.7 21 Noroeste 31 Noroeste 0 850.9 0.3 29
2019-10-02 17:00:00 13.5 19 Oeste 36 Oeste 0 850.9 0.2 30
2019-10-02 16:00:00 12.9 22 Noroeste 38 Oeste 0 851 0.2 33
2019-10-02 15:00:00 12.7 23 Noroeste 41 Noroeste 0 850.6 -0.1 35
2019-10-02 14:00:00 10.9 30 Noroeste 44 Noroeste 0 850.7 0.9 40
2019-10-02 13:00:00 9.5 24 Noroeste 38 Noroeste 0 850.8 1.6 49
2019-10-02 12:00:00 7.6 25 Noroeste 43 Noroeste 0 850.7 2.2 81
2019-10-02 11:00:00 6 31 Noroeste 58 Noroeste 0 849.8 1.9 81
2019-10-02 10:00:00 5.2 33 Noroeste 60 Noroeste 0 849.2 1.6 81
2019-10-02 09:00:00 5.6 36 Noroeste 61 Noroeste 0 848.5 1.1 82
2019-10-02 08:00:00 5.7 41 Noroeste 68 Noroeste 0 847.9 0.6 81
2019-10-02 07:00:00 6 43 Noroeste 72 Oeste 0 847.6 0.3 81
2019-10-02 06:00:00 6.3 43 Noroeste 71 Noroeste 0 847.4 -0.3 81
2019-10-02 05:00:00 6.8 43 Noroeste 72 Noroeste 0 847.3 -0.4 81
2019-10-02 04:00:00 7.2 45 Noroeste 71 Noroeste 0 847.3 -0.8 78
2019-10-02 03:00:00 7.5 49 Noroeste 75 Oeste 0 847.7 -0.5 73
2019-10-02 02:00:00 8.2 49 Noroeste 73 Noroeste 0 847.7 -0.7 64
2019-10-02 01:00:00 9.1 48 Noroeste 68 Noroeste 0 848.1 -0.3 57
2019-10-02 00:00:00 9.9 45 Noroeste 68 Noroeste 0 848.2 -0.2 51
2019-10-01 23:00:00 10.6 42 Noroeste 61 Noroeste 0 848.4 0.2 48
2019-10-01 22:00:00 11.2 33 Noroeste 50 Noroeste 0 848.4 0.3 46
2019-10-01 21:00:00 12.1 27 Noroeste 53 Noroeste 0 848.4 0.6 43
2019-10-01 20:00:00 13 31 Noroeste 52 Noroeste 0 848.2 0.5 41
2019-10-01 19:00:00 14.2 31 Noroeste 54 Noroeste 0 848.1 0.2 40
2019-10-01 18:00:00 14 32 Noroeste 59 Oeste 0 847.8 -0.1 43
2019-10-01 17:00:00 15.5 33 Noroeste 54 Noroeste 0 847.7 -0.5 43
2019-10-01 16:00:00 15.5 36 Noroeste 62 Noroeste 0 847.9 -1 39
2019-10-01 15:00:00 15.8 41 Noroeste 63 Noroeste 0 847.9 -1.1 40
2019-10-01 14:00:00 12.8 36 Noroeste 52 Noroeste 0 848.2 -0.4 56
2019-10-01 13:00:00 9.9 32 Noroeste 48 Noroeste 0 848.9 0.7 81
2019-10-01 12:00:00 10.4 34 Noroeste 49 Noroeste 0 849 1.3 81
2019-10-01 11:00:00 10.5 31 Noroeste 44 Oeste 0 848.6 0.7 79
2019-10-01 10:00:00 10.8 24 Oeste 33 Oeste 0 848.2 0.4 71
2019-10-01 09:00:00 10.3 18 Noroeste 32 Oeste 0 847.7 -0.2 57
2019-10-01 08:00:00 10.6 26 Noroeste 35 Noroeste 0 847.9 -0.2 40
2019-10-01 07:00:00 11.8 16 Noroeste 21 Noroeste 0 847.8 -1.2 39
2019-10-01 06:00:00 12.8 11 Noroeste 15 Oeste 0 847.9 -1.6 36
2019-10-01 05:00:00 13.1 13 Noroeste 19 Noroeste 0 848.1 -1.7 28
2019-10-01 04:00:00 12.9 15 Oeste 21 Oeste 0 849 -1.1 24
2019-10-01 03:00:00 14.3 12 Noroeste 18 Noroeste 0 849.5 -0.8 22
2019-10-01 02:00:00 14.6 10 Noroeste 18 Noroeste 0 849.8 -0.7 22
2019-10-01 01:00:00 14.6 11 Noroeste 17 Noroeste 0 850.1 -0.4 24
2019-10-01 00:00:00 15.9 10 Noroeste 15 Noroeste 0 850.3 0.1 23
2019-09-30 23:00:00 15.1 13 Noroeste 19 Noroeste 0 850.5 0.5 20
2019-09-30 22:00:00 15.7 11 Noroeste 16 Noroeste 0 850.5 0.3 19
2019-09-30 21:00:00 18.3 7 Noroeste 17 Sudoeste 0 850.2 -0.1 16
2019-09-30 20:00:00 19.1 10 Sudoeste 18 Sudoeste 0 850 -0.6 14
2019-09-30 19:00:00 21.9 8 Sudoeste 18 Sudoeste 0 850.2 -0.8 14
2019-09-30 18:00:00 22.1 10 Sudoeste 24 Oeste 0 850.3 -1.2 14
2019-09-30 17:00:00 23.7 8 Sudoeste 22 Sur 0 850.6 -1.3 15
2019-09-30 16:00:00 22.6 10 Este 24 Nordeste 0 851 -1.2 16
2019-09-30 15:00:00 21.6 14 Este 32 Este 0 851.5 -1.2 18
2019-09-30 14:00:00 21.3 11 Este 23 Este 0 851.9 -0.4 19
2019-09-30 13:00:00 20.1 12 Este 25 Este 0 852.2 0 22
2019-09-30 12:00:00 19.6 8 Sudeste 20 Este 0 852.7 0.8 23
2019-09-30 11:00:00 17.8 12 Este 19 Este 0 852.3 0.5 26
2019-09-30 10:00:00 16.4 8 Este 13 Este 0 852.2 0.6 28
2019-09-30 09:00:00 15.5 5 Este 8 Este 0 851.9 0.1 29
2019-09-30 08:00:00 14 3 Sudeste 6 Oeste 0 851.8 -0.1 31
2019-09-30 07:00:00 13.6 6 Oeste 11 Oeste 0 851.6 -0.7 34
2019-09-30 06:00:00 12.8 9 Oeste 14 Oeste 0 851.8 -0.7 37
2019-09-30 05:00:00 11.8 12 Oeste 20 Oeste 0 851.9 -0.9 35
2019-09-30 04:00:00 12.1 18 Noroeste 25 Noroeste 0 852.3 -0.5 30
2019-09-30 03:00:00 13.8 18 Oeste 30 Oeste 0 852.5 -0.5 26
2019-09-30 02:00:00 14.9 19 Oeste 28 Oeste 0 852.8 -0.4 24
2019-09-30 01:00:00 14.5 17 Oeste 30 Noroeste 0 852.8 -0.2 23
2019-09-30 00:00:00 13.9 19 Noroeste 23 Noroeste 0 853 0.4 23
2019-09-29 23:00:00 14.2 15 Noroeste 19 Oeste 0 853.2 1.1 23
2019-09-29 22:00:00 15.2 14 Oeste 19 Oeste 0 853 0.9 23
2019-09-29 21:00:00 15.6 12 Noroeste 21 Noroeste 0 852.6 0.3 23
2019-09-29 20:00:00 17.8 14 Noroeste 22 Noroeste 0 852.1 -0.3 21
2019-09-29 19:00:00 20.7 14 Noroeste 26 Noroeste 0 852.1 -0.4 18
2019-09-29 18:00:00 21.2 17 Noroeste 30 Noroeste 0 852.3 -0.7 18
2019-09-29 17:00:00 21.8 16 Noroeste 26 Noroeste 0 852.4 -1 18
2019-09-29 16:00:00 22 16 Noroeste 29 Oeste 0 852.5 -0.8 18
2019-09-29 15:00:00 21.9 16 Noroeste 30 Oeste 0 853 -0.3 19
2019-09-29 14:00:00 22 5 Noroeste 22 Noroeste 0 853.4 0.3 19
2019-09-29 13:00:00 20.5 8 Este 16 Este 0 853.3 0.8 22
2019-09-29 12:00:00 20.1 2 Sudoeste 13 Noroeste 0 853.3 1 22
2019-09-29 11:00:00 18.1 10 Noroeste 16 Oeste 0 853.1 1 25
2019-09-29 10:00:00 15.3 12 Oeste 20 Noroeste 0 852.5 0.7 29
2019-09-29 09:00:00 13.3 14 Oeste 19 Oeste 0 852.3 0.3 29
2019-09-29 08:00:00 12.6 12 Oeste 17 Noroeste 0 852.1 -0.2 29
2019-09-29 07:00:00 12.7 14 Noroeste 22 Noroeste 0 851.8 -1 30
2019-09-29 06:00:00 13 12 Oeste 17 Noroeste 0 852 -0.8 27
2019-09-29 05:00:00 13.9 8 Oeste 15 Oeste 0 852.3 -0.4 24
2019-09-29 04:00:00 14 10 Oeste 15 Oeste 0 852.8 -0.4 22
2019-09-29 03:00:00 16.4 3 Sur 7 Oeste 0 852.8 -0.6 20
2019-09-29 02:00:00 16.7 5 Sudoeste 9 Sudoeste 0 852.7 -0.7 21
2019-09-29 01:00:00 16.2 4 Sudeste 7 Sudeste 0 853.2 -0.2 19
2019-09-29 00:00:00 15.3 0 Calma -- -- 0 853.4 0.2 22
2019-09-28 23:00:00 16.2 0 Calma -- -- 0 853.4 0.4 20
2019-09-28 22:00:00 16.8 0 Calma 10 Norte 0 853.4 0.6 20
2019-09-28 21:00:00 17.1 6 Sur 14 Sudoeste 0 853.2 0.3 19
2019-09-28 20:00:00 18.2 7 Sudeste 15 Sudeste 0 853 0.1 18
2019-09-28 19:00:00 19.8 8 Sudeste 18 Sudeste 0 852.8 -0.6 17
2019-09-28 18:00:00 20.9 9 Sudeste 22 Sudeste 0 852.9 -0.8 16
2019-09-28 17:00:00 21.1 10 Sudeste 23 Sudeste 0 852.9 -1.1 18
2019-09-28 16:00:00 21.4 9 Este 22 Este 0 853.4 -0.9 20
2019-09-28 15:00:00 21 8 Sudeste 21 Sur 0 853.7 -0.7 22
2019-09-28 14:00:00 19.8 9 Este 21 Sudeste 0 854 -0.2 22
2019-09-28 13:00:00 18.8 10 Sudeste 23 Este 0 854.3 0.6 23
2019-09-28 12:00:00 17.3 9 Sudeste 20 Sudeste 0 854.4 1.1 25
2019-09-28 11:00:00 16.5 10 Sudeste 18 Este 0 854.2 1.3 26
2019-09-28 10:00:00 14.9 11 Sudeste 18 Sudeste 0 853.7 0.7 29
2019-09-28 09:00:00 14.2 12 Sudeste 17 Sudeste 0 853.3 0.4 30
2019-09-28 08:00:00 12.4 11 Este 14 Sudeste 0 852.9 0 33
2019-09-28 07:00:00 12.6 8 Este 10 Sudeste 0 853 -0.1 31
2019-09-28 06:00:00 13.9 5 Sudeste 10 Este 0 852.9 -0.6 32
2019-09-28 05:00:00 14.2 4 Sudeste 15 Oeste 0 852.9 -0.8 37
2019-09-28 04:00:00 9.3 14 Noroeste 23 Noroeste 0 853.1 -0.7 73
2019-09-28 03:00:00 9.4 19 Noroeste 31 Oeste 0 853.5 -0.3 70
2019-09-28 02:00:00 11 25 Oeste 36 Oeste 0 853.7 0.2 61
2019-09-28 01:00:00 11.3 26 Oeste 37 Noroeste 0 853.8 0.4 47
2019-09-28 00:00:00 12 21 Oeste 28 Oeste 0 853.8 0.7 37
2019-09-27 23:00:00 12.7 20 Oeste 26 Noroeste 0 853.5 0.8 32
2019-09-27 22:00:00 12.7 17 Noroeste 22 Oeste 0 853.4 0.7 30
2019-09-27 21:00:00 13.3 15 Noroeste 24 Oeste 0 853.1 0.6 25
2019-09-27 20:00:00 15.9 18 Noroeste 33 Noroeste 0 852.7 0.4 20
2019-09-27 19:00:00 18.4 23 Noroeste 35 Oeste 0 852.7 0.2 18
2019-09-27 18:00:00 19.2 20 Noroeste 36 Noroeste 0 852.5 -0.4 21
2019-09-27 17:00:00 19.9 19 Noroeste 36 Oeste 0 852.3 -1.1 17
2019-09-27 16:00:00 20.2 17 Noroeste 29 Noroeste 0 852.5 -1 16
2019-09-27 15:00:00 19.6 12 Noroeste 24 Noroeste 0 852.9 -0.6 18
2019-09-27 14:00:00 18.9 12 Noroeste 29 Noroeste 0 853.4 0 22
2019-09-27 13:00:00 17.1 15 Noroeste 26 Oeste 0 853.5 0.5 26
2019-09-27 12:00:00 15.2 17 Oeste 26 Noroeste 0 853.5 1 31
2019-09-27 11:00:00 14.2 11 Noroeste 21 Noroeste 0 853.4 1.1 38
2019-09-27 10:00:00 12.2 11 Oeste 19 Noroeste 0 853 0.4 47
2019-09-27 09:00:00 10 14 Noroeste 20 Noroeste 0 852.5 -0.3 41
2019-09-27 08:00:00 10.2 15 Oeste 24 Oeste 0 852.3 -0.4 44
2019-09-27 07:00:00 9.6 17 Noroeste 21 Noroeste 0 852.6 0 36
2019-09-27 06:00:00 11.1 14 Noroeste 19 Noroeste 0 852.8 -0.3 33
2019-09-27 05:00:00 10.6 17 Noroeste 22 Noroeste 0 852.7 -0.7 31
2019-09-27 04:00:00 11.6 18 Noroeste 23 Oeste 0 852.6 -1 30
2019-09-27 03:00:00 11.8 17 Oeste 24 Oeste 0 853.1 -0.5 29
2019-09-27 02:00:00 13 19 Oeste 27 Oeste 0 853.4 -0.1 29
2019-09-27 01:00:00 12.6 19 Noroeste 26 Oeste 0 853.6 0.3 33
2019-09-27 00:00:00 12.8 18 Noroeste 23 Noroeste 0 853.6 0.7 37
2019-09-26 23:00:00 13.9 16 Noroeste 21 Oeste 0 853.5 0.9 35
2019-09-26 22:00:00 14.8 14 Oeste 19 Noroeste 0 853.3 1 34
2019-09-26 21:00:00 15.4 13 Noroeste 19 Oeste 0 852.9 0.4 34
2019-09-26 20:00:00 17.6 14 Noroeste 23 Noroeste 0 852.6 0.1 31
2019-09-26 19:00:00 19.6 16 Noroeste 26 Oeste 0 852.3 -0.5 26
2019-09-26 18:00:00 21.1 3 Sudeste 14 Sudeste 0 852.5 -0.3 25
2019-09-26 17:00:00 20.2 7 Este 21 Sudeste 0 852.5 -0.4 26
2019-09-26 16:00:00 19.5 13 Este 24 Este 0 852.8 -0.3 28
2019-09-26 15:00:00 19.1 13 Este 27 Este 0 852.8 -0.5 29
2019-09-26 14:00:00 18.1 12 Este 23 Este 0 852.9 -0.3 31
2019-09-26 13:00:00 17.4 11 Este 23 Este 0 853.1 0.3 33
2019-09-26 12:00:00 15.5 12 Sudeste 22 Sudeste 0 853.3 1 36
2019-09-26 11:00:00 15.2 9 Este 17 Este 0 853.2 1.3 38
2019-09-26 10:00:00 13.5 10 Este 16 Este 0 852.8 1.3 40
2019-09-26 09:00:00 13.8 6 Este 8 Este 0 852.3 0.8 37
2019-09-26 08:00:00 12.6 5 Sudeste 6 Sudeste 0 851.9 0.3 36
2019-09-26 07:00:00 11.3 0 Calma 13 Noroeste 0 851.5 -0.4 44
2019-09-26 06:00:00 9.9 10 Oeste 14 Oeste 0 851.5 -0.6 54
2019-09-26 05:00:00 9.9 10 Oeste 17 Oeste 0 851.6 -0.5 54
2019-09-26 04:00:00 10.1 12 Oeste 17 Oeste 0 851.9 -0.4 52
2019-09-26 03:00:00 10.5 10 Oeste 17 Oeste 0 852.1 -0.1 49
2019-09-26 02:00:00 10.3 11 Oeste 13 Oeste 0 852.1 0.1 49
2019-09-26 01:00:00 10.3 10 Noroeste 13 Oeste 0 852.3 0.4 50
2019-09-26 00:00:00 10.3 10 Oeste 17 Oeste 0 852.2 0.8 49
2019-09-25 23:00:00 10.3 14 Oeste 19 Oeste 0 852 0.8 48
2019-09-25 22:00:00 11.2 11 Oeste 15 Oeste 0 851.9 1.1 44
2019-09-25 21:00:00 11.7 11 Oeste 25 Oeste 0 851.4 0.7 41
2019-09-25 20:00:00 12.7 20 Noroeste 32 Noroeste 0 851.2 0.5 37
2019-09-25 19:00:00 13.7 21 Noroeste 35 Noroeste 0 850.8 -0.2 34
2019-09-25 18:00:00 14.7 23 Noroeste 39 Noroeste 0 850.7 -0.6 33
2019-09-25 17:00:00 15.4 23 Noroeste 38 Noroeste 0 850.7 -0.8 32
2019-09-25 16:00:00 15.6 16 Oeste 30 Oeste 0 851 -0.5 32
2019-09-25 15:00:00 13.9 18 Oeste 32 Oeste 0 851.3 -0.1 34
2019-09-25 14:00:00 12.2 22 Oeste 36 Noroeste 0 851.5 0.2 38
2019-09-25 13:00:00 11.4 24 Oeste 41 Oeste 0 851.5 1 44
2019-09-25 12:00:00 10.4 25 Noroeste 37 Noroeste 0 851.4 1.7 49
2019-09-25 11:00:00 8.3 21 Oeste 37 Noroeste 0 851.3 2.4 79
2019-09-25 10:00:00 6.9 24 Noroeste 46 Noroeste 0 850.5 1.7 81
2019-09-25 09:00:00 6.6 34 Noroeste 53 Noroeste 0 849.7 0.9 81
2019-09-25 08:00:00 6.7 41 Noroeste 59 Noroeste 0 848.9 0.6 81
2019-09-25 07:00:00 7.2 41 Noroeste 61 Oeste 0 848.8 -0.2 81
2019-09-25 06:00:00 7.4 40 Noroeste 62 Noroeste 0 848.8 -0.8 80
2019-09-25 05:00:00 7.4 39 Noroeste 60 Noroeste 0 848.3 -1.4 77
2019-09-25 04:00:00 7.9 40 Noroeste 59 Noroeste 0 849 -1.2 78
2019-09-25 03:00:00 8.8 39 Noroeste 55 Noroeste 0 849.6 -0.6 79
2019-09-25 02:00:00 9.7 38 Noroeste 60 Oeste 0 849.7 -1 77
2019-09-25 01:00:00 10.3 40 Noroeste 60 Oeste 0 850.2 -0.8 74
2019-09-25 00:00:00 11.4 37 Noroeste 58 Noroeste 0 850.2 -0.6 75
2019-09-24 23:00:00 12.1 35 Noroeste 52 Noroeste 0 850.7 0 75
2019-09-24 22:00:00 12.7 27 Noroeste 41 Noroeste 0 851 0.3 80
2019-09-24 21:00:00 12.9 28 Noroeste 44 Oeste 0 850.8 0.2 80
2019-09-24 20:00:00 13.4 27 Noroeste 45 Noroeste 0 850.7 -0.3 79
2019-09-24 19:00:00 14.3 26 Noroeste 48 Noroeste 0 850.7 -0.8 73
2019-09-24 18:00:00 16.4 25 Noroeste 39 Noroeste 0 850.6 -1.2 55
2019-09-24 17:00:00 16.9 17 Noroeste 36 Noroeste 0 851 -1.3 51
2019-09-24 16:00:00 17.4 15 Noroeste 26 Noroeste 0 851.5 -0.8 49
2019-09-24 15:00:00 17.6 13 Noroeste 33 Noroeste 0 851.8 -0.5 45
2019-09-24 14:00:00 17.8 19 Noroeste 36 Oeste 0 852.3 0 39
2019-09-24 13:00:00 16.8 25 Noroeste 45 Noroeste 0 852.3 0.7 39
2019-09-24 12:00:00 16.2 29 Noroeste 50 Oeste 0 852.3 0.7 29
2019-09-24 11:00:00 14.9 28 Noroeste 41 Noroeste 0 852.3 1 29
2019-09-24 10:00:00 12.9 27 Noroeste 37 Noroeste 0 851.6 0.3 36
2019-09-24 09:00:00 11.1 21 Noroeste 27 Oeste 0 851.6 0.2 44
2019-09-24 08:00:00 10 18 Noroeste 33 Noroeste 0 851.3 -0.4 53
2019-09-24 07:00:00 10.7 27 Noroeste 36 Oeste 0 851.3 -0.9 51
2019-09-24 06:00:00 10.7 16 Oeste 22 Oeste 0 851.4 -1.3 47
2019-09-24 05:00:00 13.3 8 Noroeste 12 Noroeste 0 851.7 -1.1 39
2019-09-24 04:00:00 13.8 3 Sudeste 9 Este 0 852.2 -0.9 40
2019-09-24 03:00:00 13.9 6 Sudoeste 12 Sudoeste 0 852.7 -0.8 40
2019-09-24 02:00:00 12.8 7 Sudeste 14 Sudeste 0 852.8 -0.8 46
2019-09-24 01:00:00 12.7 11 Sudeste 13 Este 0 853.1 -0.4 45
2019-09-24 00:00:00 12.9 0 Calma 9 Sudeste 0 853.5 0.1 44
2019-09-23 23:00:00 12.8 8 Sudeste 10 Sudeste 0 853.6 0.5 47
2019-09-23 22:00:00 13.2 0 Calma 7 Este 0 853.5 0.6 46
2019-09-23 21:00:00 13.5 5 Este 9 Este 0 853.4 0.6 45
2019-09-23 20:00:00 13.5 6 Este 12 Este 0 853.1 0.4 49
2019-09-23 19:00:00 15.5 7 Sudeste 13 Sudeste 0 852.9 0.2 39
2019-09-23 18:00:00 16.2 7 Este 15 Este 0 852.8 0.1 36
2019-09-23 17:00:00 16.2 5 Este 16 Sudeste 0 852.7 -0.1 36
2019-09-23 16:00:00 16.1 8 Sudeste 19 Este 0 852.7 -0.2 37
2019-09-23 15:00:00 15.6 8 Sudeste 19 Este 0 852.7 -0.1 39
2019-09-23 14:00:00 15.5 9 Este 18 Sudeste 0 852.8 0.2 42
2019-09-23 13:00:00 13.8 8 Sudeste 19 Este 0 852.9 0.4 44
2019-09-23 12:00:00 12.1 13 Este 21 Sudeste 0 852.8 0.8 48
2019-09-23 11:00:00 12.3 9 Este 18 Este 0 852.6 1 48
2019-09-23 10:00:00 10.9 4 Este 11 Este 0 852.5 1.3 53
2019-09-23 09:00:00 8.8 2 Oeste 9 Sudeste 0 852 1.1 61
2019-09-23 08:00:00 8.9 7 Sudeste 13 Sudeste 0 851.6 0.9 62
2019-09-23 07:00:00 5.6 9 Noroeste 21 Oeste 0 851.2 0.5 71
2019-09-23 06:00:00 6.4 16 Oeste 23 Oeste 0 850.9 0.2 61
2019-09-23 05:00:00 6.8 15 Oeste 25 Oeste 0 850.7 0.1 56
2019-09-23 04:00:00 7.3 17 Oeste 24 Oeste 0 850.7 0 53
2019-09-23 03:00:00 6.3 17 Noroeste 21 Noroeste 0 850.7 0.4 60
2019-09-23 02:00:00 6.3 13 Oeste 24 Oeste 0 850.6 0.4 66
2019-09-23 01:00:00 6.5 18 Noroeste 29 Noroeste 0 850.7 1.2 68
2019-09-23 00:00:00 7.5 22 Noroeste 29 Oeste 0 850.3 1.1 64
2019-09-22 23:00:00 7.2 23 Noroeste 31 Noroeste 0 850.2 1.4 62
2019-09-22 22:00:00 7.8 25 Noroeste 37 Oeste 0 849.5 0.8 58
2019-09-22 21:00:00 8.9 22 Noroeste 35 Noroeste 0 849.2 0.7 54
2019-09-22 20:00:00 10.3 19 Noroeste 33 Noroeste 0 848.8 0.8 47
2019-09-22 19:00:00 11.2 19 Noroeste 37 Noroeste 0 848.7 0.9 51
2019-09-22 18:00:00 11.9 19 Noroeste 39 Noroeste 0 848.5 1.2 50
2019-09-22 17:00:00 12.3 24 Noroeste 46 Noroeste 0 848 0.5 47
2019-09-22 16:00:00 11.9 28 Noroeste 48 Noroeste 0 847.8 0.2 50
2019-09-22 15:00:00 12.9 29 Noroeste 49 Noroeste 0 847.3 -0.1 45
2019-09-22 14:00:00 11.6 28 Noroeste 44 Noroeste 0 847.5 0.4 51
2019-09-22 13:00:00 8.8 24 Noroeste 41 Noroeste 0 847.6 0.9 81
2019-09-22 12:00:00 8.3 27 Noroeste 38 Noroeste 0 847.4 1.3 81
2019-09-22 11:00:00 7.9 23 Noroeste 35 Oeste 0 847.1 1.2 81
2019-09-22 10:00:00 7.4 26 Noroeste 40 Noroeste 0 846.7 1.2 81
2019-09-22 09:00:00 7.2 25 Oeste 40 Noroeste 0.1 846.1 0.8 82
2019-09-22 08:00:00 7.3 23 Noroeste 33 Noroeste 0.3 845.9 0.6 81
2019-09-22 07:00:00 7.6 21 Noroeste 35 Noroeste 1.9 845.5 -0.1 81
2019-09-22 06:00:00 9.2 12 Noroeste 24 Sur 0.4 845.3 0 82
2019-09-22 05:00:00 10.7 14 Sudoeste 32 Sudoeste 0 845.3 -0.4 81
2019-09-22 04:00:00 10.8 8 Este 28 Sudeste 0.9 845.6 0 81
2019-09-22 03:00:00 10.7 20 Sudeste 33 Este 1 845.3 -0.7 81
2019-09-22 02:00:00 10.8 12 Este 32 Este 0.1 845.7 -0.6 81
2019-09-22 01:00:00 10.7 20 Este 33 Este 0.1 845.6 -0.1 81
2019-09-22 00:00:00 10.6 11 Este 33 Este 0.1 846 0.3 81
2019-09-21 23:00:00 10.5 14 Este 28 Sudeste 0.1 846.3 0.5 81
2019-09-21 22:00:00 10.6 20 Este 41 Este 0 845.7 -0.1 81
2019-09-21 21:00:00 10.6 11 Sur 48 Sudoeste 0.5 845.7 -0.2 81
2019-09-21 20:00:00 10.7 13 Sur 42 Sur 0.4 845.8 -0.1 81
2019-09-21 19:00:00 11.3 10 Sudeste 25 Sudeste 0.5 845.8 -0.3 81
2019-09-21 18:00:00 11.9 7 Sudeste 33 Sudeste 0.1 845.9 -0.4 81
2019-09-21 17:00:00 11.4 21 Este 37 Sudeste 0 845.9 -1 81
2019-09-21 16:00:00 11.3 17 Este 39 Este 0.2 846.1 -0.8 81
2019-09-21 15:00:00 11.2 19 Este 31 Este 0.6 846.3 -0.5 81
2019-09-21 14:00:00 10.7 19 Sudeste 34 Este 0.1 846.9 0 81
2019-09-21 13:00:00 10.7 17 Este 30 Este 0 846.9 0.6 81
2019-09-21 12:00:00 10.7 18 Este 29 Este 0 846.8 0.2 81
2019-09-21 11:00:00 10.6 16 Sudeste 30 Sudeste 0 846.9 0.2 81
2019-09-21 10:00:00 10.4 15 Sudeste 35 Sudeste 0 846.3 -0.4 81
2019-09-21 09:00:00 9.6 13 Sudeste 22 Sudeste 0 846.6 0.3 81
2019-09-21 08:00:00 9.6 8 Sudeste 22 Este 0 846.7 0.4 81
2019-09-21 07:00:00 10.1 13 Sudeste 25 Sudeste 0 846.7 0.3 81
2019-09-21 06:00:00 10.3 15 Este 30 Este 0 846.3 -0.6 81
2019-09-21 05:00:00 10.9 13 Este 35 Este 0 846.3 -1.1 81
2019-09-21 04:00:00 10.6 21 Sudeste 34 Sudeste 0 846.4 -1.1 81
2019-09-21 03:00:00 11.3 13 Este 27 Este 0 846.9 -0.9 81
2019-09-21 02:00:00 11.9 6 Sudeste 15 Este 0.1 847.4 -0.6 81
2019-09-21 01:00:00 11.6 5 Este 20 Sudeste 0 847.5 -0.1 81
2019-09-21 00:00:00 11.2 9 Sudeste 18 Este 0 847.8 -0.2 81
2019-09-20 23:00:00 11.3 13 Este 28 Este 1.1 848 0.2 81
2019-09-20 22:00:00 12.4 11 Sudeste 24 Sudeste 3 847.6 0.4 78
2019-09-20 21:00:00 12.6 7 Este 31 Sudeste 0.8 848 0.5 76
2019-09-20 20:00:00 13.1 11 Sudeste 44 Sudeste 9.6 847.8 -0.1 74
2019-09-20 19:00:00 13.9 16 Este 36 Sudeste 1.4 847.2 -1.3 71
2019-09-20 18:00:00 15.5 21 Este 41 Este 0 847.5 -1.3 55
2019-09-20 17:00:00 15.9 20 Este 37 Sudeste 0 847.9 -1.4 54
2019-09-20 16:00:00 15.6 22 Sudeste 42 Sudeste 0 848.5 -1 60
2019-09-20 15:00:00 14.2 18 Este 35 Este 0 848.8 -1 67
2019-09-20 14:00:00 13.4 21 Sudeste 34 Este 0 849.3 -0.5 70
2019-09-20 13:00:00 12.9 19 Sudeste 36 Este 0 849.5 -0.4 72
2019-09-20 12:00:00 12.6 21 Este 36 Sudeste 0 849.8 0.4 73
2019-09-20 11:00:00 12.1 19 Este 33 Este 0 849.8 0.7 78
2019-09-20 10:00:00 11.7 17 Este 30 Sudeste 0 849.9 0.8 79
2019-09-20 09:00:00 11.7 18 Este 35 Este 0 849.4 0.4 77
2019-09-20 08:00:00 12.1 21 Este 35 Este 0 849.1 -0.3 74
2019-09-20 07:00:00 12.2 20 Este 32 Sudeste 0 849.1 -0.8 74
2019-09-20 06:00:00 12.2 17 Este 28 Este 0 849 -1.3 74
2019-09-20 05:00:00 12.8 15 Sudeste 24 Sudeste 0 849.4 -1.1 72
2019-09-20 04:00:00 12.9 17 Sudeste 25 Sudeste 0 849.9 -0.8 67
2019-09-20 03:00:00 13.2 15 Sudeste 28 Este 0 850.3 -0.5 58
2019-09-20 02:00:00 14.4 15 Este 26 Este 0 850.5 -0.6 50
2019-09-20 01:00:00 14.8 12 Este 18 Sudeste 0 850.7 0 47
2019-09-20 00:00:00 14.9 10 Este 16 Este 0 850.8 0.4 46